Flight Track Log - Related Links

Times and Time Zones

All times are in EDT time to prevent confusion due to time zone crossing. See the N570DB flight status page for this flight to view local times or setup timezone preferences in your user account.

Time Position Orientation Groundspeed Altitude Reporting Facility
EDT Latitude Longitude Course Direction KTS MPH feet Rate Location/Type
Wed 11:31:11 AM 26.0036 -80.2456 328° Northwest 90 104 200  Level Miami Center
Wed 11:32:12 AM 26.0242 -80.2600 328° Northwest 111 128 1,000 787 Climbing Miami Center
Wed 11:33:13 AM 26.0169 -80.2969 258° West 130 150 1,800 443 Climbing Miami Center
Wed 11:34:14 AM 26.0117 -80.3383 262° West 136 157 1,900 51 Climbing Miami Center
Wed 11:35:10 AM 26.0089 -80.3775 265° West 138 159 1,900 47 Level Miami Center
Wed 11:36:23 AM 26.0075 -80.4283 268° West 140 161 2,000 45 Climbing Miami Center
Wed 11:37:24 AM 26.0044 -80.4722 266° West 138 159 2,000 98 Level Miami Center
Wed 11:38:25 AM 26.0011 -80.5161 265° West 136 157 2,200 414 Climbing Miami Center
Wed 11:39:20 AM 25.9981 -80.5528 265° West 126 145 2,800 595 Climbing Miami Center
Wed 11:40:26 AM 25.9972 -80.5944 269° West 125 144 3,400 541 Climbing Miami Center
Wed 11:41:22 AM 25.9964 -80.6292 268° West 117 135 3,900 256 Climbing Miami Center
Wed 11:42:23 AM 25.9953 -80.6683 268° West 137 158 3,900  Level Miami Center
Wed 11:43:30 AM 26.0067 -80.7125 286° West 140 161 3,900  Level Miami Center
Wed 11:44:25 AM 26.0308 -80.7433 311° West 142 163 3,900 56 Level Miami Center
Wed 11:45:18 AM 26.0639 -80.7561 341° North 144 166 4,000 53 Climbing Miami Center
Wed 11:46:18 AM 26.0947 -80.7781 327° Northwest 149 171 4,000  Level Miami Center
Wed 11:47:18 AM 26.1317 -80.8000 332° Northwest 149 171 4,000 100 Level Miami Center
Wed 11:48:18 AM 26.1667 -80.8219 331° Northwest 149 171 4,200 350 Climbing Miami Center
Wed 11:49:18 AM 26.1994 -80.8392 335° Northwest 143 165 4,700 550 Climbing Miami Center
Wed 11:50:18 AM 26.2303 -80.8611 327° Northwest 137 158 5,300 650 Climbing Miami Center
Wed 11:51:18 AM 26.2611 -80.8806 331° Northwest 127 146 6,000 550 Climbing Miami Center
Wed 11:52:18 AM 26.2936 -80.9094 321° Northwest 132 152 6,400 450 Climbing Miami Center
Wed 11:53:18 AM 26.3203 -80.9336 321° Northwest 137 158 6,900 550 Climbing Miami Center
Wed 11:54:18 AM 26.3528 -80.9625 321° Northwest 137 158 7,500 550 Climbing Miami Center
Wed 11:55:18 AM 26.3792 -80.9867 321° Northwest 136 157 8,000 300 Climbing Miami Center
Wed 11:56:18 AM 26.4139 -81.0181 321° Northwest 147 169 8,100  Climbing Miami Center
Wed 11:57:18 AM 26.4506 -81.0517 321° Northwest 150 173 8,000 -50 Descending Miami Center
Wed 11:58:18 AM 26.4769 -81.0736 323° Northwest 150 173 8,000  Level Miami Center
Wed 11:59:18 AM 26.5094 -81.1028 321° Northwest 155 178 8,000  Level Miami Center
Wed 12:00:18 PM 26.5442 -81.1342 321° Northwest 155 178 8,000  Level Miami Center
Wed 12:01:18 PM 26.5808 -81.1656 323° Northwest 155 178 8,000  Level Miami Center
Wed 12:02:18 PM 26.6111 -81.1944 320° Northwest 149 171 8,000  Level Miami Center
Wed 12:03:18 PM 26.6439 -81.2236 322° Northwest 149 171 8,000  Level Miami Center
Wed 12:04:18 PM 26.6764 -81.2528 321° Northwest 149 171 8,000  Level Miami Center
Wed 12:05:18 PM 26.7067 -81.2842 317° Northwest 149 171 8,000  Level Miami Center
Wed 12:06:18 PM 26.7392 -81.3108 324° Northwest 149 171 8,000  Level Miami Center
Wed 12:07:18 PM 26.7697 -81.3400 320° Northwest 149 171 8,000  Level Miami Center
Wed 12:08:18 PM 26.8042 -81.3717 321° Northwest 149 171 8,000  Level Miami Center
Wed 12:09:18 PM 26.8367 -81.3983 324° Northwest 144 166 8,000  Level Miami Center
Wed 12:10:18 PM 26.8606 -81.4342 307° West 144 166 8,000  Level Miami Center
Wed 12:11:18 PM 26.8886 -81.4750 308° West 149 171 8,000  Level Miami Center
Wed 12:12:18 PM 26.9064 -81.5058 303° West 149 171 8,000  Level Miami Center
Wed 12:13:18 PM 26.9281 -81.5439 303° West 155 178 8,000 -50 Level Miami Center
Wed 12:14:18 PM 26.9481 -81.5775 304° West 149 171 7,900 -50 Descending Miami Center
Wed 12:15:18 PM 26.9697 -81.6178 301° West 149 171 7,900  Level Miami Center
Wed 12:16:18 PM 26.9914 -81.6561 302° West 149 171 7,900  Level Miami Center
Wed 12:17:18 PM 27.0236 -81.6922 315° West 149 171 7,900  Level Miami Center
Wed 12:18:18 PM 27.0536 -81.7239 317° Northwest 149 171 7,900  Level Miami Center
Wed 12:19:18 PM 27.0861 -81.7556 319° Northwest 149 171 7,900  Level Miami Center
Wed 12:20:18 PM 27.1164 -81.7872 317° Northwest 149 171 7,900  Level Miami Center
Wed 12:21:18 PM 27.1467 -81.8142 322° Northwest 149 171 7,900  Level Miami Center
Wed 12:22:18 PM 27.1769 -81.8458 317° Northwest 149 171 7,900  Level Miami Center
Wed 12:23:18 PM 27.2072 -81.8775 317° Northwest 149 171 7,900  Level Miami Center
Wed 12:24:18 PM 27.2353 -81.9067 317° Northwest 143 165 7,900 -200 Level Miami Center
Wed 12:25:18 PM 27.2656 -81.9383 317° Northwest 148 170 7,500 -400 Descending Miami Center
Wed 12:26:18 PM 27.2956 -81.9722 315° West 148 170 7,100 -400 Descending Miami Center
Wed 12:27:18 PM 27.3278 -82.0042 319° Northwest 148 170 6,700 -450 Descending Miami Center
Wed 12:28:18 PM 27.3603 -82.0361 319° Northwest 148 170 6,200 -500 Descending Miami Center
Wed 12:29:18 PM 27.3903 -82.0700 315° West 148 170 5,700 -600 Descending Miami Center
Wed 12:30:18 PM 27.4206 -82.0994 319° Northwest 148 170 5,000 -700 Descending Miami Center
Wed 12:31:18 PM 27.4528 -82.1292 321° Northwest 148 170 4,300 -500 Descending Miami Center
Wed 12:32:18 PM 27.4808 -82.1608 315° West 143 165 4,000 -100 Descending Miami Center
Wed 12:33:18 PM 27.5111 -82.1878 322° Northwest 143 165 4,100 -50 Climbing Miami Center
Wed 12:34:18 PM 27.5394 -82.2125 322° Northwest 137 158 3,900 -350 Descending Miami Center
Wed 12:35:18 PM 27.5739 -82.2422 323° Northwest 137 158 3,400 -350 Descending Miami Center
Wed 12:36:18 PM 27.6003 -82.2575 333° Northwest 137 158 3,200 1,300 Descending Miami Center
Wed 12:37:18 PM 27.6328 -82.2872 321° Northwest 137 158 6,000 -44 Climbing Miami Center
Wed 12:38:34 PM 27.6833 -82.3167 333° Northwest 132 152 3,100 -1,292 Descending Tampa TRACON
Wed 12:39:28 PM 27.7167 -82.3333 336° Northwest 133 153 3,200 111 Climbing Tampa TRACON

Login

Don't have an account? Register now (free) for customized features, flight alerts, and more!